Time;durP1;ratioP1;P1;durP2;ratioP2;P2;SDS_P1;SDS_P2;PMS_P1;PMS_P2;Temp;Humidity;BMP_temperature;BMP_pressure;BME280_temperature;BME280_humidity;BME280_pressure;Samples;Min_cycle;Max_cycle;Signal;HPM_P1;HPM_P2
2021/12/24 00:02:15;;;;;;;2.33;1.27;;;;;;;5.29;100.00;98701.94;5011584;28;20049;-51
2021/12/24 00:05:18;;;;;;;1.02;0.90;;;;;;;5.32;100.00;98703.78;5011283;28;20061;-51
2021/12/24 00:08:22;;;;;;;2.20;1.45;;;;;;;5.41;100.00;98703.75;5011144;28;20374;-52
2021/12/24 00:11:25;;;;;;;3.67;1.40;;;;;;;5.42;100.00;98704.50;5011162;28;20121;-51
2021/12/24 00:14:31;;;;;;;3.28;1.27;;;;;;;5.38;100.00;98701.91;5011370;28;20074;-51
2021/12/24 00:17:36;;;;;;;1.48;0.88;;;;;;;5.30;100.00;98703.50;5010810;28;20065;-52
2021/12/24 00:22:04;;;;;;;2.00;1.80;;;;;;;5.29;100.00;98697.19;5010792;28;20057;-51
2021/12/24 00:37:35;;;;;;;8.10;0.73;;;;;;;5.28;100.00;98703.94;5010556;28;20061;-51
2021/12/24 00:40:46;;;;;;;0.93;0.68;;;;;;;5.22;100.00;98702.28;5010776;28;20060;-53
2021/12/24 00:43:50;;;;;;;2.00;1.10;;;;;;;5.18;100.00;98694.19;5010968;28;20069;-53
2021/12/24 00:46:53;;;;;;;0.75;0.35;;;;;;;5.10;100.00;98706.03;5018942;28;20349;-52
2021/12/24 00:49:58;;;;;;;1.95;0.47;;;;;;;4.98;100.00;98696.72;5012921;28;20500;-52
2021/12/24 00:53:02;;;;;;;1.10;1.00;;;;;;;4.93;100.00;98691.84;5010812;28;20065;-51
2021/12/24 00:56:08;;;;;;;0.95;0.85;;;;;;;4.94;100.00;98698.13;5010591;28;20413;-53
2021/12/24 00:59:12;;;;;;;2.50;1.23;;;;;;;4.93;100.00;98710.41;5010686;28;20061;-53
2021/12/24 01:02:15;;;;;;;1.83;0.70;;;;;;;4.82;100.00;98705.38;5010044;28;20061;-52
2021/12/24 01:05:20;;;;;;;7.93;2.15;;;;;;;4.82;100.00;98710.13;5010665;28;20057;-53
2021/12/24 01:08:24;;;;;;;1.27;1.17;;;;;;;4.82;100.00;98710.13;5010101;28;20068;-53
2021/12/24 01:11:28;;;;;;;2.22;2.03;;;;;;;4.95;100.00;98703.19;5021085;28;20057;-53
2021/12/24 01:14:31;;;;;;;3.05;1.58;;;;;;;5.01;100.00;98700.53;5009963;28;20056;-54
2021/12/24 01:21:09;;;;;;;7.97;1.13;;;;;;;5.13;100.00;98691.31;5010223;28;20060;-53
2021/12/24 01:24:20;;;;;;;1.38;0.90;;;;;;;5.23;100.00;98695.56;5014369;28;20417;-52
2021/12/24 01:43:59;;;;;;;0.60;0.60;;;;;;;5.43;100.00;98690.25;5013996;28;20520;-53
2021/12/24 01:47:06;;;;;;;0.85;0.85;;;;;;;5.45;100.00;98685.00;5013875;28;20069;-53
2021/12/24 01:50:11;;;;;;;0.30;0.30;;;;;;;5.50;100.00;98686.38;5024699;28;20057;-53
2021/12/24 01:53:20;;;;;;;0.80;0.68;;;;;;;5.58;100.00;98693.06;5001877;28;20089;-52
2021/12/24 01:56:24;;;;;;;1.15;0.68;;;;;;;5.62;100.00;98683.38;5013630;28;20472;-53
2021/12/24 01:59:27;;;;;;;2.15;0.65;;;;;;;5.56;100.00;98690.00;5024331;28;20069;-53
2021/12/24 02:02:31;;;;;;;2.35;0.60;;;;;;;5.48;100.00;98689.56;5012731;28;20061;-53
2021/12/24 02:05:35;;;;;;;10.70;1.33;;;;;;;5.38;100.00;98686.13;5013735;28;20065;-53
2021/12/24 02:08:39;;;;;;;0.52;0.52;;;;;;;5.27;100.00;98685.09;5013381;28;20057;-53
2021/12/24 02:11:42;;;;;;;0.70;0.70;;;;;;;5.31;100.00;98696.72;5013079;28;20073;-53
2021/12/24 02:14:50;;;;;;;0.95;0.57;;;;;;;5.34;100.00;98690.28;5012870;28;20532;-53
2021/12/24 02:31:10;;;;;;;1.30;0.80;;;;;;;5.27;100.00;98696.13;5012637;28;20561;-53
2021/12/24 02:34:14;;;;;;;1.70;1.08;;;;;;;5.44;100.00;98694.50;5012332;28;20068;-53
2021/12/24 02:37:18;;;;;;;0.10;0.10;;;;;;;5.52;100.00;98701.22;5009867;28;20492;-52
2021/12/24 02:40:22;;;;;;;0.47;0.20;;;;;;;5.67;100.00;98706.81;5012206;28;20057;-53
2021/12/24 02:43:26;;;;;;;1.45;0.57;;;;;;;5.77;100.00;98705.50;4999004;28;20057;-52
2021/12/24 02:46:52;;;;;;;3.10;0.52;;;;;;;5.88;100.00;98703.00;5011518;28;20069;-53
2021/12/24 02:56:32;;;;;;;0.50;0.45;;;;;;;6.16;100.00;98703.53;5012329;28;20088;-53
2021/12/24 02:59:46;;;;;;;0.93;0.25;;;;;;;6.26;100.00;98707.78;5010916;28;20057;-53
2021/12/24 03:02:50;;;;;;;13.75;0.85;;;;;;;6.32;100.00;98692.06;5012013;28;20073;-53
2021/12/24 03:05:53;;;;;;;3.13;0.75;;;;;;;6.38;100.00;98690.91;5012215;28;20402;-53
2021/12/24 03:08:57;;;;;;;2.30;0.80;;;;;;;6.43;100.00;98692.25;5028592;28;20060;-52
2021/12/24 03:12:01;;;;;;;4.45;0.55;;;;;;;6.53;100.00;98693.69;5012105;28;20068;-53
2021/12/24 03:15:06;;;;;;;0.38;0.25;;;;;;;6.60;100.00;98693.31;5030477;28;20064;-52
2021/12/24 03:18:09;;;;;;;0.20;0.20;;;;;;;6.70;100.00;98683.66;5021206;28;20061;-52
2021/12/24 03:21:17;;;;;;;0.50;0.50;;;;;;;6.76;100.00;98688.06;5011845;28;20045;-52
2021/12/24 03:27:24;;;;;;;2.28;0.65;;;;;;;6.75;100.00;98688.53;5012015;28;20068;-52
2021/12/24 03:30:28;;;;;;;1.05;0.70;;;;;;;6.80;100.00;98691.38;5010952;28;20057;-52
2021/12/24 03:33:34;;;;;;;1.13;0.30;;;;;;;6.81;100.00;98689.38;4996792;28;20053;-53
2021/12/24 03:36:37;;;;;;;0.60;0.45;;;;;;;6.81;100.00;98697.69;5012107;28;20129;-53
2021/12/24 03:39:42;;;;;;;0.75;0.75;;;;;;;6.94;100.00;98700.94;4997246;28;20394;-53
2021/12/24 03:42:45;;;;;;;1.00;0.40;;;;;;;6.99;100.00;98703.03;5011613;28;20057;-52
2021/12/24 03:45:59;;;;;;;0.20;0.10;;;;;;;7.04;100.00;98694.03;5010651;28;20045;-52
2021/12/24 03:49:08;;;;;;;0.38;0.20;;;;;;;7.14;100.00;98698.22;5010571;28;20057;-52
2021/12/24 03:52:21;;;;;;;1.17;0.50;;;;;;;7.20;100.00;98696.31;5012012;28;20060;-52
2021/12/24 03:55:24;;;;;;;0.57;0.55;;;;;;;7.32;100.00;98692.44;5011354;28;20076;-52
2021/12/24 03:58:27;;;;;;;0.68;0.68;;;;;;;7.37;100.00;98686.22;5011771;28;20061;-52
2021/12/24 04:01:31;;;;;;;0.22;0.15;;;;;;;7.45;100.00;98690.13;5010881;28;20053;-52
2021/12/24 04:04:34;;;;;;;0.63;0.52;;;;;;;7.59;100.00;98694.84;5011798;28;20117;-52
2021/12/24 04:07:38;;;;;;;1.20;0.52;;;;;;;7.81;100.00;98693.63;5011433;28;20049;-53
2021/12/24 04:10:41;;;;;;;0.30;0.30;;;;;;;7.94;100.00;98680.94;5011580;28;20053;-53
2021/12/24 04:13:45;;;;;;;0.70;0.70;;;;;;;8.05;100.00;98691.38;4995562;28;20057;-53
2021/12/24 04:16:49;;;;;;;1.27;0.22;;;;;;;8.13;100.00;98686.94;5011537;28;20061;-53
2021/12/24 04:26:37;;;;;;;0.47;0.43;;;;;;;8.48;100.00;98690.38;5002363;28;20076;-53
2021/12/24 04:29:41;;;;;;;0.20;0.20;;;;;;;8.54;100.00;98693.97;5010710;28;20065;-53
2021/12/24 04:36:39;;;;;;;5.28;0.55;;;;;;;8.29;100.00;98700.28;5011200;28;20053;-53
2021/12/24 05:06:09;;;;;;;0.50;0.40;;;;;;;8.56;100.00;98685.91;5014611;28;20057;-53
2021/12/24 05:09:05;;;;;;;0.50;0.50;;;;;;;8.60;100.00;98674.59;5014134;28;20125;-53
2021/12/24 05:12:10;;;;;;;0.10;0.10;;;;;;;8.67;100.00;98674.13;5014682;28;20048;-54
2021/12/24 05:15:13;;;;;;;4.68;0.45;;;;;;;8.71;100.00;98672.66;5014277;28;20061;-53
2021/12/24 05:19:02;;;;;;;0.10;0.10;;;;;;;8.80;100.00;98671.72;5014638;28;20057;-53
2021/12/24 05:21:55;;;;;;;0.28;0.13;;;;;;;8.77;100.00;98673.47;5015909;28;20065;-53
2021/12/24 05:24:59;;;;;;;0.30;0.30;;;;;;;8.81;100.00;98682.38;5022722;28;20389;-53
2021/12/24 05:28:04;;;;;;;0.30;0.20;;;;;;;8.77;100.00;98687.34;5014240;28;20056;-53
2021/12/24 05:31:08;;;;;;;0.25;0.10;;;;;;;8.75;100.00;98681.53;5014026;28;20053;-53
2021/12/24 05:34:14;;;;;;;2.03;1.10;;;;;;;8.66;100.00;98673.41;5014171;28;20057;-53
2021/12/24 05:37:17;;;;;;;0.17;0.15;;;;;;;8.65;100.00;98677.41;5014172;28;20057;-53
2021/12/24 05:40:21;;;;;;;0.68;0.52;;;;;;;8.69;100.00;98669.63;5013792;28;20061;-53
2021/12/24 05:43:25;;;;;;;2.50;1.27;;;;;;;8.69;100.00;98675.19;5012507;28;20053;-53
2021/12/24 05:46:29;;;;;;;0.50;0.45;;;;;;;8.61;100.00;98676.88;5014131;28;20056;-53
2021/12/24 05:49:34;;;;;;;0.22;0.10;;;;;;;8.55;100.00;98673.28;5013072;28;20068;-54
2021/12/24 05:52:37;;;;;;;0.32;0.30;;;;;;;8.48;100.00;98662.63;5013855;28;20057;-54
2021/12/24 05:55:41;;;;;;;0.10;0.10;;;;;;;8.56;100.00;98666.47;5013644;28;20173;-54
2021/12/24 05:58:45;;;;;;;1.08;0.75;;;;;;;8.47;100.00;98669.41;5013615;28;20053;-53
2021/12/24 06:01:49;;;;;;;0.43;0.32;;;;;;;8.48;100.00;98672.97;5013299;28;20056;-53
2021/12/24 06:04:52;;;;;;;0.40;0.38;;;;;;;8.43;100.00;98660.56;5014043;28;20385;-53
2021/12/24 06:07:56;;;;;;;1.40;0.47;;;;;;;8.29;100.00;98656.63;5012111;28;20064;-54
2021/12/24 06:10:59;;;;;;;0.10;0.10;;;;;;;8.22;100.00;98656.28;5011369;28;20513;-53
2021/12/24 06:14:10;;;;;;;0.57;0.32;;;;;;;7.97;100.00;98645.94;5010956;28;20061;-53
2021/12/24 06:17:17;;;;;;;0.20;0.20;;;;;;;7.85;100.00;98644.28;5010436;28;20068;-53
2021/12/24 06:20:23;;;;;;;0.35;0.35;;;;;;;7.71;100.00;98645.13;5011252;28;20065;-53
2021/12/24 06:23:27;;;;;;;4.75;0.47;;;;;;;7.55;100.00;98649.19;5011222;28;20796;-53
2021/12/24 06:26:31;;;;;;;1.60;0.55;;;;;;;7.43;100.00;98648.28;5008420;28;20121;-54
2021/12/24 06:29:35;;;;;;;0.63;0.63;;;;;;;7.27;100.00;98648.84;5012058;28;20060;-53
2021/12/24 06:32:38;;;;;;;5.00;2.33;;;;;;;7.04;100.00;98646.97;5009980;28;20532;-53
2021/12/24 06:35:42;;;;;;;5.47;1.75;;;;;;;6.98;100.00;98651.66;5012915;28;20057;-61
2021/12/24 06:38:46;;;;;;;0.47;0.45;;;;;;;6.87;100.00;98657.03;5010989;28;20056;-61
2021/12/24 06:41:50;;;;;;;1.30;0.50;;;;;;;6.64;100.00;98655.16;5010586;28;20130;-61
2021/12/24 06:44:53;;;;;;;2.28;1.20;;;;;;;6.51;100.00;98657.44;5010445;28;20077;-61
2021/12/24 06:47:59;;;;;;;2.42;0.98;;;;;;;6.39;100.00;98662.00;5010226;28;20137;-61
2021/12/24 06:51:03;;;;;;;2.55;0.75;;;;;;;6.29;100.00;98670.88;5007990;28;20065;-61
2021/12/24 06:54:08;;;;;;;0.40;0.40;;;;;;;6.34;100.00;98659.94;5011610;28;20076;-62
2021/12/24 06:57:18;;;;;;;3.80;1.55;;;;;;;6.21;100.00;98667.72;4999572;28;20061;-61
2021/12/24 07:00:22;;;;;;;2.83;0.82;;;;;;;6.17;100.00;98667.16;5012362;28;20053;-61
2021/12/24 07:03:25;;;;;;;2.08;0.75;;;;;;;6.07;100.00;98658.19;5011446;28;20065;-61
2021/12/24 07:06:29;;;;;;;1.40;1.30;;;;;;;5.92;100.00;98651.84;5011711;28;20057;-61
2021/12/24 07:09:32;;;;;;;13.45;1.15;;;;;;;5.88;100.00;98656.03;5011689;28;20069;-60
2021/12/24 07:12:36;;;;;;;2.45;1.75;;;;;;;5.84;100.00;98653.47;5011233;28;20072;-60
2021/12/24 07:15:40;;;;;;;0.40;0.40;;;;;;;5.81;100.00;98646.09;5012049;28;20060;-61
2021/12/24 07:18:43;;;;;;;4.15;0.50;;;;;;;5.74;100.00;98654.72;5011515;28;20061;-61
2021/12/24 07:21:47;;;;;;;9.07;0.63;;;;;;;5.73;100.00;98655.97;5012061;28;20057;-61
2021/12/24 07:24:50;;;;;;;3.25;1.20;;;;;;;5.68;100.00;98658.59;4995314;28;20057;-61
2021/12/24 07:27:54;;;;;;;1.23;1.13;;;;;;;5.73;100.00;98660.72;5011509;28;20084;-61
2021/12/24 07:30:57;;;;;;;0.50;0.50;;;;;;;5.71;100.00;98658.44;5003355;28;20065;-61
2021/12/24 07:34:01;;;;;;;0.10;0.10;;;;;;;5.62;100.00;98655.75;5011898;28;20421;-60
2021/12/24 07:37:04;;;;;;;0.10;0.10;;;;;;;5.54;100.00;98649.06;5007190;28;20069;-61
2021/12/24 07:40:10;;;;;;;0.10;0.10;;;;;;;5.55;100.00;98649.81;4961374;22;20060;-79
2021/12/24 07:43:14;;;;;;;0.17;0.15;;;;;;;5.49;100.00;98657.97;6013336;23;20048;-80
2021/12/24 07:46:18;;;;;;;1.25;0.95;;;;;;;5.47;100.00;98649.41;6032091;23;20044;-79
2021/12/24 07:52:25;;;;;;;0.77;0.45;;;;;;;5.44;100.00;98666.13;5998000;23;20386;-82
2021/12/24 07:55:29;;;;;;;0.20;0.20;;;;;;;5.39;100.00;98659.28;5986457;23;20044;-81
2021/12/24 07:58:32;;;;;;;0.15;0.15;;;;;;;5.35;100.00;98653.91;6003444;23;20044;-81
2021/12/24 08:01:35;;;;;;;0.28;0.28;;;;;;;5.36;100.00;98660.97;6020038;23;20045;-80
2021/12/24 08:04:39;;;;;;;0.20;0.20;;;;;;;5.32;100.00;98665.16;6003537;23;20045;-80
2021/12/24 08:07:42;;;;;;;0.30;0.30;;;;;;;5.33;100.00;98661.13;5987319;23;20045;-80
2021/12/24 08:10:46;;;;;;;0.30;0.30;;;;;;;5.34;100.00;98670.97;5996243;23;20040;-82
2021/12/24 08:13:49;;;;;;;0.25;0.25;;;;;;;5.36;100.00;98671.25;6004473;23;20110;-80
2021/12/24 08:16:52;;;;;;;0.20;0.20;;;;;;;5.30;100.00;98667.63;6003026;23;20040;-83
2021/12/24 08:19:56;;;;;;;0.17;0.17;;;;;;;5.25;100.00;98676.53;6003474;23;20048;-82
2021/12/24 08:22:59;;;;;;;0.28;0.28;;;;;;;5.22;100.00;98678.22;5994131;23;20054;-80
2021/12/24 08:26:03;;;;;;;2.55;0.60;;;;;;;5.20;100.00;98677.94;6003405;23;20064;-78
2021/12/24 08:29:06;;;;;;;2.15;1.02;;;;;;;5.18;100.00;98671.34;6003794;23;20044;-78
2021/12/24 08:32:10;;;;;;;1.25;1.15;;;;;;;5.11;100.00;98671.69;6003881;23;20395;-79
2021/12/24 08:35:17;;;;;;;1.88;1.15;;;;;;;5.08;100.00;98667.88;6004015;23;20044;-79
2021/12/24 08:38:21;;;;;;;3.50;0.40;;;;;;;5.03;100.00;98673.25;6003524;23;20045;-79
2021/12/24 08:41:24;;;;;;;1.60;0.75;;;;;;;5.08;100.00;98689.19;6003561;23;20355;-79
2021/12/24 08:44:31;;;;;;;7.75;1.02;;;;;;;5.10;100.00;98670.16;6004390;23;20110;-79
2021/12/24 08:47:34;;;;;;;2.38;2.03;;;;;;;5.11;100.00;98657.91;6003185;23;20061;-78
2021/12/24 08:50:38;;;;;;;5.30;1.00;;;;;;;5.10;100.00;98664.66;6003964;23;20048;-78
2021/12/24 08:53:42;;;;;;;0.50;0.50;;;;;;;5.03;100.00;98670.50;6003751;23;20044;-77
2021/12/24 08:56:45;;;;;;;0.30;0.30;;;;;;;5.01;100.00;98659.16;6003849;23;20045;-78
2021/12/24 08:59:49;;;;;;;0.68;0.32;;;;;;;5.06;100.00;98666.81;6003421;23;20045;-78
2021/12/24 09:02:52;;;;;;;0.60;0.57;;;;;;;5.11;100.00;98675.22;6004265;23;20044;-78
2021/12/24 09:05:56;;;;;;;8.90;1.27;;;;;;;5.16;100.00;98673.81;5986099;23;20048;-78
2021/12/24 09:08:59;;;;;;;1.35;0.98;;;;;;;5.12;100.00;98651.91;6003878;23;20392;-78
2021/12/24 09:12:03;;;;;;;4.05;1.17;;;;;;;5.13;100.00;98652.69;6019106;23;20068;-78
2021/12/24 09:15:06;;;;;;;9.85;1.65;;;;;;;5.25;100.00;98646.16;6004212;23;20106;-77
2021/12/24 09:18:10;;;;;;;1.90;0.38;;;;;;;5.34;100.00;98641.38;6002543;23;20084;-81
2021/12/24 09:21:16;;;;;;;1.00;0.22;;;;;;;5.32;100.00;98659.63;6002080;23;20045;-79
2021/12/24 09:24:21;;;;;;;0.10;0.10;;;;;;;5.38;100.00;98657.75;6003236;23;20087;-78
2021/12/24 09:27:25;;;;;;;1.73;0.63;;;;;;;5.36;100.00;98654.69;6002658;23;20044;-78
2021/12/24 09:30:30;;;;;;;1.45;0.82;;;;;;;5.35;100.00;98644.88;6003079;23;20049;-78
2021/12/24 09:33:33;;;;;;;2.30;1.00;;;;;;;5.43;100.00;98643.31;6003669;23;20052;-79
2021/12/24 09:36:38;;;;;;;1.45;1.35;;;;;;;5.46;100.00;98638.84;6004063;23;20095;-78
2021/12/24 09:39:41;;;;;;;0.65;0.65;;;;;;;5.50;100.00;98642.94;5996348;23;20044;-77
2021/12/24 09:42:46;;;;;;;2.03;1.08;;;;;;;5.52;100.00;98636.97;6003690;23;20490;-77
2021/12/24 09:45:49;;;;;;;1.00;0.60;;;;;;;5.52;100.00;98636.97;6005166;23;20107;-77
2021/12/24 09:48:54;;;;;;;0.30;0.30;;;;;;;5.54;100.00;98638.00;6020324;23;20040;-78
2021/12/24 09:51:58;;;;;;;2.30;1.33;;;;;;;5.59;100.00;98633.84;6004947;23;20044;-77
2021/12/24 09:55:10;;;;;;;0.50;0.50;;;;;;;5.66;100.00;98631.47;6003845;23;20407;-77
2021/12/24 09:58:14;;;;;;;1.27;1.17;;;;;;;5.68;100.00;98647.56;6005053;23;20041;-77
2021/12/24 10:01:29;;;;;;;0.70;0.50;;;;;;;5.66;100.00;98639.75;6003874;23;20049;-78
2021/12/24 10:04:36;;;;;;;0.57;0.35;;;;;;;5.64;100.00;98642.22;6020640;23;20383;-75
2021/12/24 10:07:41;;;;;;;0.30;0.30;;;;;;;5.64;100.00;98645.00;6004352;23;20048;-76
2021/12/24 10:10:48;;;;;;;0.65;0.40;;;;;;;5.67;100.00;98649.59;6004692;23;20049;-76
2021/12/24 10:13:55;;;;;;;15.90;1.30;;;;;;;5.71;100.00;98652.94;6004403;23;20052;-76
2021/12/24 10:17:00;;;;;;;0.20;0.20;;;;;;;5.67;100.00;98655.09;6020424;23;20036;-76
2021/12/24 10:20:16;;;;;;;0.40;0.40;;;;;;;5.72;100.00;98661.94;6004155;23;20044;-77
2021/12/24 10:23:40;;;;;;;0.10;0.10;;;;;;;5.71;100.00;98663.97;6004372;23;20037;-78
2021/12/24 10:26:46;;;;;;;0.73;0.47;;;;;;;5.69;100.00;98671.19;6034284;23;20111;-78
2021/12/24 10:29:50;;;;;;;0.20;0.20;;;;;;;5.73;100.00;98671.78;6005927;23;20044;-79
2021/12/24 10:32:55;;;;;;;0.10;0.10;;;;;;;5.84;100.00;98678.34;6019794;23;20115;-78
2021/12/24 10:36:03;;;;;;;2.65;1.77;;;;;;;5.92;100.00;98671.19;6004865;23;20064;-78
2021/12/24 10:39:06;;;;;;;0.40;0.25;;;;;;;6.03;100.00;98679.72;6005468;23;20114;-78
2021/12/24 10:42:14;;;;;;;0.10;0.10;;;;;;;6.03;100.00;98676.94;5998410;23;20044;-79
2021/12/24 10:45:22;;;;;;;10.05;1.00;;;;;;;6.16;100.00;98670.38;6004970;23;20044;-80
2021/12/24 10:48:25;;;;;;;0.60;0.50;;;;;;;6.29;100.00;98657.06;6005299;23;20427;-80
2021/12/24 10:51:54;;;;;;;0.38;0.38;;;;;;;6.38;100.00;98659.72;6004909;23;20049;-80
2021/12/24 10:55:08;;;;;;;0.95;0.32;;;;;;;6.58;100.00;98668.88;6004483;23;20061;-81
2021/12/24 10:58:17;;;;;;;0.63;0.30;;;;;;;6.79;100.00;98655.91;5982109;23;20045;-81
2021/12/24 11:01:21;;;;;;;0.52;0.52;;;;;;;7.06;100.00;98655.56;6020334;23;20044;-79
2021/12/24 11:04:35;;;;;;;0.25;0.10;;;;;;;7.28;100.00;98653.13;6003974;23;20045;-80
2021/12/24 11:07:41;;;;;;;0.55;0.28;;;;;;;7.43;100.00;98642.75;6026532;23;20387;-80
2021/12/24 11:10:48;;;;;;;0.85;0.52;;;;;;;7.68;100.00;98635.00;6002206;23;20053;-79
2021/12/24 11:13:52;;;;;;;0.43;0.35;;;;;;;7.87;100.00;98637.00;6003685;23;20059;-82
2021/12/24 11:16:56;;;;;;;0.10;0.10;;;;;;;8.03;100.00;98633.66;6004766;23;20499;-83
2021/12/24 11:20:02;;;;;;;2.00;0.70;;;;;;;8.14;100.00;98635.78;6004600;23;20045;-80
2021/12/24 11:23:14;;;;;;;16.02;1.23;;;;;;;8.32;100.00;98630.69;6004200;23;20044;-80
2021/12/24 11:26:20;;;;;;;2.40;1.52;;;;;;;8.38;100.00;98630.78;6003419;23;20052;-80
2021/12/24 11:29:24;;;;;;;0.75;0.55;;;;;;;8.43;100.00;98615.41;6003541;23;20041;-80
2021/12/24 11:32:27;;;;;;;2.10;1.40;;;;;;;8.50;100.00;98620.50;5981603;23;20391;-80
2021/12/24 11:35:31;;;;;;;0.50;0.50;;;;;;;8.66;100.00;98617.91;6004629;23;20040;-80
2021/12/24 11:38:41;;;;;;;1.08;0.82;;;;;;;8.76;100.00;98622.00;5983520;23;20395;-80
2021/12/24 11:41:45;;;;;;;3.92;0.85;;;;;;;8.73;100.00;98617.44;6004433;23;20064;-80
2021/12/24 11:44:49;;;;;;;0.10;0.10;;;;;;;8.86;100.00;98620.56;6019909;23;20061;-80
2021/12/24 11:47:53;;;;;;;0.20;0.20;;;;;;;8.95;100.00;98614.81;6019877;23;20494;-80
2021/12/24 11:50:58;;;;;;;0.55;0.10;;;;;;;8.99;100.00;98607.03;6006767;23;20423;-81
2021/12/24 11:54:04;;;;;;;1.23;0.15;;;;;;;9.00;100.00;98608.56;6003695;23;20052;-80
2021/12/24 11:57:19;;;;;;;0.40;0.30;;;;;;;9.07;100.00;98605.28;6004716;23;20072;-81
2021/12/24 12:00:32;;;;;;;0.30;0.25;;;;;;;9.10;100.00;98595.97;6004656;23;20044;-81
2021/12/24 12:03:38;;;;;;;1.40;0.30;;;;;;;9.09;100.00;98600.03;6004816;23;20092;-81
2021/12/24 12:06:42;;;;;;;0.10;0.10;;;;;;;9.12;100.00;98604.56;5997498;23;20044;-81
2021/12/24 12:09:47;;;;;;;1.65;1.35;;;;;;;9.15;100.00;98600.81;6004183;23;20040;-81
2021/12/24 12:12:50;;;;;;;1.33;0.70;;;;;;;9.27;100.00;98598.09;5983478;23;20049;-81
2021/12/24 12:15:57;;;;;;;1.25;0.68;;;;;;;9.25;100.00;98589.50;6003126;23;20064;-80
2021/12/24 12:19:26;;;;;;;2.75;1.20;;;;;;;9.24;100.00;98593.53;6004402;23;20044;-78
2021/12/24 12:25:43;;;;;;;1.20;0.50;;;;;;;9.14;100.00;98585.41;6004620;23;20048;-79
2021/12/24 12:29:25;;;;;;;0.57;0.28;;;;;;;9.07;100.00;98583.06;6003013;23;20033;-81
2021/12/24 12:32:39;;;;;;;0.63;0.63;;;;;;;8.94;100.00;98577.19;6001050;23;20074;-80
2021/12/24 12:35:50;;;;;;;2.17;0.40;;;;;;;8.86;100.00;98570.59;6002809;23;20633;-81
2021/12/24 12:38:54;;;;;;;4.85;1.25;;;;;;;8.90;100.00;98571.13;5981479;23;20045;-81
2021/12/24 12:41:58;;;;;;;0.10;0.10;;;;;;;8.89;100.00;98575.16;6004181;23;20482;-79
2021/12/24 12:45:02;;;;;;;0.57;0.43;;;;;;;8.75;100.00;98564.97;5982590;23;20045;-78
2021/12/24 12:48:09;;;;;;;4.78;1.17;;;;;;;8.73;100.00;98556.38;6002825;23;20041;-79
2021/12/24 12:51:13;;;;;;;0.85;0.85;;;;;;;8.73;100.00;98567.47;6003814;23;20052;-79
2021/12/24 12:54:39;;;;;;;0.15;0.10;;;;;;;8.67;100.00;98566.66;6004134;23;20044;-79
2021/12/24 12:57:43;;;;;;;1.55;1.23;;;;;;;8.64;100.00;98553.78;6003941;23;20049;-80
2021/12/24 13:01:07;;;;;;;3.50;1.63;;;;;;;8.64;100.00;98559.31;5996256;23;20041;-80
2021/12/24 13:04:11;;;;;;;4.88;0.68;;;;;;;8.66;100.00;98562.41;6012609;23;20045;-80
2021/12/24 13:07:22;;;;;;;11.77;2.05;;;;;;;8.65;100.00;98560.84;6004288;23;20391;-80
2021/12/24 13:10:27;;;;;;;2.22;0.93;;;;;;;8.69;100.00;98560.63;6002678;23;20066;-80
2021/12/24 13:13:32;;;;;;;1.10;0.20;;;;;;;8.73;100.00;98555.59;6004084;23;20117;-80
2021/12/24 13:16:50;;;;;;;0.40;0.40;;;;;;;8.76;100.00;98552.63;6003322;23;20491;-80
2021/12/24 13:20:11;;;;;;;1.48;1.27;;;;;;;8.81;100.00;98568.56;6004389;23;20384;-79
2021/12/24 13:23:22;;;;;;;3.70;1.42;;;;;;;8.76;100.00;98569.25;6004330;23;20165;-79
2021/12/24 13:26:33;;;;;;;1.25;0.65;;;;;;;8.75;100.00;98559.41;6003392;23;20044;-79
2021/12/24 13:29:36;;;;;;;0.82;0.73;;;;;;;8.76;100.00;98565.72;6004949;23;20498;-81
2021/12/24 13:32:45;;;;;;;0.13;0.10;;;;;;;8.79;100.00;98562.72;5986684;23;20065;-81
2021/12/24 13:35:49;;;;;;;0.95;0.40;;;;;;;8.84;100.00;98550.13;6005133;23;20041;-79
2021/12/24 13:38:53;;;;;;;4.30;1.33;;;;;;;8.90;100.00;98546.13;5988721;23;20053;-81
2021/12/24 13:42:08;;;;;;;0.55;0.55;;;;;;;8.92;100.00;98546.38;6003936;23;20044;-78
2021/12/24 13:45:12;;;;;;;0.10;0.10;;;;;;;8.92;100.00;98551.19;6004719;23;20048;-79
2021/12/24 13:48:31;;;;;;;0.55;0.55;;;;;;;8.92;100.00;98551.94;6005593;23;20045;-79
2021/12/24 13:55:21;;;;;;;4.03;0.65;;;;;;;8.91;100.00;98533.00;5989916;23;20064;-79
2021/12/24 13:58:24;;;;;;;26.70;1.30;;;;;;;9.02;100.00;98522.75;5981234;23;20037;-80
2021/12/24 14:01:30;;;;;;;0.30;0.30;;;;;;;9.05;100.00;98535.59;6004281;23;20064;-80
2021/12/24 14:04:33;;;;;;;3.30;2.17;;;;;;;8.99;100.00;98528.50;6010569;23;20040;-79
2021/12/24 14:07:36;;;;;;;0.85;0.47;;;;;;;9.05;100.00;98521.72;6014823;23;20041;-79
2021/12/24 14:10:42;;;;;;;1.42;1.27;;;;;;;9.09;100.00;98529.84;5991400;23;20431;-81
2021/12/24 14:13:53;;;;;;;3.20;1.00;;;;;;;9.21;100.00;98534.19;6011508;23;20049;-79
2021/12/24 14:17:32;;;;;;;0.95;0.57;;;;;;;9.23;100.00;98514.22;6004630;23;20045;-79
2021/12/24 14:20:59;;;;;;;0.95;0.52;;;;;;;9.22;100.00;98507.16;6005085;23;20503;-80
2021/12/24 14:24:27;;;;;;;0.20;0.10;;;;;;;9.19;100.00;98514.47;6004640;23;20044;-80
2021/12/24 14:27:31;;;;;;;0.47;0.47;;;;;;;9.23;100.00;98517.78;6003980;23;20041;-80
2021/12/24 14:30:34;;;;;;;0.55;0.35;;;;;;;9.35;100.00;98518.59;6003525;23;20044;-81
2021/12/24 14:33:46;;;;;;;2.63;0.50;;;;;;;9.43;100.00;98514.81;6003719;23;20099;-80
2021/12/24 14:37:11;;;;;;;6.78;1.55;;;;;;;9.45;100.00;98514.31;6003522;23;20068;-82
2021/12/24 14:40:15;;;;;;;1.60;0.63;;;;;;;9.62;100.00;98513.09;6004471;23;20053;-85
2021/12/24 14:43:19;;;;;;;0.85;0.68;;;;;;;9.70;100.00;98508.56;6003295;23;20048;-79
2021/12/24 14:46:25;;;;;;;0.20;0.13;;;;;;;9.71;100.00;98512.13;6004857;23;20044;-79
2021/12/24 14:49:38;;;;;;;0.35;0.35;;;;;;;9.69;100.00;98500.75;6004371;23;20045;-80
2021/12/24 14:52:43;;;;;;;0.30;0.10;;;;;;;9.60;100.00;98507.28;6003689;23;20044;-79
2021/12/24 14:55:48;;;;;;;0.35;0.17;;;;;;;9.57;100.00;98504.75;6004374;23;20041;-79
2021/12/24 14:59:01;;;;;;;0.30;0.30;;;;;;;9.50;100.00;98506.00;6019478;23;20391;-80
2021/12/24 15:02:04;;;;;;;0.25;0.10;;;;;;;9.43;100.00;98502.94;6002049;23;20080;-80
2021/12/24 15:05:08;;;;;;;0.45;0.43;;;;;;;9.46;100.00;98493.63;6002225;23;20044;-80
2021/12/24 15:08:37;;;;;;;1.10;0.98;;;;;;;9.46;100.00;98493.63;6002637;23;20048;-79
2021/12/24 15:11:40;;;;;;;1.13;0.40;;;;;;;9.45;100.00;98497.63;6012512;23;20040;-80
2021/12/24 15:14:46;;;;;;;2.33;0.95;;;;;;;9.52;100.00;98499.94;6004489;23;20470;-80
2021/12/24 15:17:50;;;;;;;9.38;1.23;;;;;;;9.57;100.00;98504.75;6001970;23;20048;-80
2021/12/24 15:20:53;;;;;;;1.55;0.57;;;;;;;9.61;100.00;98506.03;6004012;23;20040;-80
2021/12/24 15:24:00;;;;;;;4.38;0.60;;;;;;;9.67;100.00;98494.94;6019865;23;20048;-80
2021/12/24 15:27:03;;;;;;;1.30;1.20;;;;;;;9.71;100.00;98503.78;6004234;23;20045;-80
2021/12/24 15:30:10;;;;;;;1.20;0.77;;;;;;;9.73;100.00;98492.91;6004703;23;20506;-80
2021/12/24 15:33:15;;;;;;;0.25;0.25;;;;;;;9.74;100.00;98506.31;5984498;23;20048;-80
2021/12/24 15:36:20;;;;;;;2.95;1.05;;;;;;;9.78;100.00;98506.06;6004268;23;20056;-80
2021/12/24 15:39:23;;;;;;;2.63;1.70;;;;;;;9.83;100.00;98506.06;6003974;23;20510;-80
2021/12/24 15:42:29;;;;;;;8.23;1.20;;;;;;;9.97;100.00;98504.31;6014524;23;20122;-79
2021/12/24 15:45:34;;;;;;;6.35;0.75;;;;;;;9.90;100.00;98504.81;5986951;23;20044;-80
2021/12/24 15:48:37;;;;;;;1.13;0.88;;;;;;;10.09;100.00;98499.53;6003662;23;20105;-80
2021/12/24 15:51:41;;;;;;;0.35;0.35;;;;;;;10.18;100.00;98502.84;5999526;23;20482;-79
2021/12/24 15:54:44;;;;;;;4.70;1.27;;;;;;;10.37;100.00;98498.28;6003422;23;20044;-80
2021/12/24 15:57:47;;;;;;;7.63;0.88;;;;;;;10.36;100.00;98488.44;6003497;23;20483;-80
2021/12/24 16:00:53;;;;;;;4.78;1.15;;;;;;;10.38;100.00;98491.47;6003974;23;20049;-80
2021/12/24 16:03:56;;;;;;;5.18;0.73;;;;;;;10.46;100.00;98506.38;6004290;23;20384;-81
2021/12/24 16:07:01;;;;;;;1.85;1.30;;;;;;;10.44;100.00;98506.13;6004496;23;20060;-81
2021/12/24 16:10:05;;;;;;;1.35;1.10;;;;;;;10.56;100.00;98504.09;6003709;23;20053;-81
2021/12/24 16:13:08;;;;;;;4.38;1.27;;;;;;;10.55;100.00;98497.75;6024773;23;20501;-82
2021/12/24 16:16:11;;;;;;;0.52;0.50;;;;;;;10.55;100.00;98489.41;6007047;23;20121;-81
2021/12/24 16:19:16;;;;;;;4.35;1.52;;;;;;;10.55;100.00;98492.19;6004194;23;20495;-80